createdAt,value
2023-01-17T00:02:01.934Z,100.00
2023-01-17T00:04:47.363Z,100.00
2023-01-17T00:07:34.068Z,100.00
2023-01-17T00:10:04.360Z,100.00
2023-01-17T00:12:30.978Z,100.00
2023-01-17T00:14:58.607Z,100.00
2023-01-17T00:17:26.659Z,100.00
2023-01-17T00:20:11.732Z,100.00
2023-01-17T00:22:56.567Z,100.00
2023-01-17T00:25:44.489Z,100.00
2023-01-17T00:28:10.926Z,100.00
2023-01-17T00:30:37.285Z,100.00
2023-01-17T00:33:03.796Z,100.00
2023-01-17T00:35:31.775Z,100.00
2023-01-17T00:38:11.913Z,100.00
2023-01-17T00:40:39.764Z,100.00
2023-01-17T00:43:25.347Z,100.00
2023-01-17T00:46:10.855Z,100.00
2023-01-17T00:48:56.437Z,100.00
2023-01-17T00:51:43.485Z,100.00
2023-01-17T00:54:28.942Z,100.00
2023-01-17T00:57:14.366Z,100.00
2023-01-17T00:59:59.344Z,100.00
2023-01-17T01:02:44.722Z,100.00
2023-01-17T01:05:31.488Z,100.00
2023-01-17T01:08:16.954Z,100.00
2023-01-17T01:11:02.355Z,100.00
2023-01-17T01:13:47.991Z,100.00
2023-01-17T01:16:33.393Z,100.00
2023-01-17T01:19:18.297Z,100.00
2023-01-17T01:22:03.573Z,100.00
2023-01-17T01:24:49.249Z,100.00
2023-01-17T01:27:34.196Z,100.00
2023-01-17T01:30:19.324Z,100.00
2023-01-17T01:33:04.016Z,100.00
2023-01-17T01:35:30.514Z,100.00
2023-01-17T01:37:56.913Z,100.00
2023-01-17T01:40:23.298Z,100.00
2023-01-17T01:42:53.881Z,100.00
2023-01-17T01:45:25.846Z,100.00
2023-01-17T01:47:56.576Z,100.00
2023-01-17T01:50:23.281Z,100.00
2023-01-17T01:52:53.648Z,100.00
2023-01-17T01:55:26.821Z,100.00
2023-01-17T01:57:55.556Z,100.00
2023-01-17T02:00:29.681Z,100.00
2023-01-17T02:02:58.225Z,100.00
2023-01-17T02:05:25.684Z,100.00
2023-01-17T02:08:01.652Z,100.00
2023-01-17T02:10:28.396Z,100.00
2023-01-17T02:12:55.893Z,100.00
2023-01-17T02:15:31.862Z,100.00
2023-01-17T02:18:24.321Z,100.00
2023-01-17T02:21:18.034Z,100.00
2023-01-17T02:24:09.260Z,100.00
2023-01-17T02:26:50.010Z,100.00
2023-01-17T02:29:34.779Z,100.00
2023-01-17T02:32:07.078Z,100.00
2023-01-17T02:34:45.598Z,100.00
2023-01-17T02:37:16.976Z,100.00
2023-01-17T02:39:50.876Z,100.00
2023-01-17T02:42:19.654Z,100.00
2023-01-17T02:44:46.015Z,100.00
2023-01-17T02:47:24.994Z,100.00
2023-01-17T02:49:53.735Z,100.00
2023-01-17T02:52:26.127Z,100.00
2023-01-17T02:55:14.671Z,100.00
2023-01-17T02:57:59.097Z,100.00
2023-01-17T03:00:42.265Z,100.00
2023-01-17T03:03:27.114Z,100.00
2023-01-17T03:05:53.379Z,100.00
2023-01-17T03:08:20.286Z,100.00
2023-01-17T03:10:46.969Z,100.00
2023-01-17T03:13:13.776Z,100.00
2023-01-17T03:15:40.582Z,100.00
2023-01-17T03:18:11.504Z,100.00
2023-01-17T03:20:37.922Z,100.00
2023-01-17T03:23:04.287Z,100.00
2023-01-17T03:25:30.692Z,100.00
2023-01-17T03:27:57.070Z,100.00
2023-01-17T03:30:23.511Z,100.00
2023-01-17T03:32:49.969Z,100.00
2023-01-17T03:35:16.376Z,100.00
2023-01-17T03:37:42.936Z,100.00
2023-01-17T03:40:09.768Z,100.00
2023-01-17T03:42:36.271Z,100.00
2023-01-17T03:45:02.704Z,100.00
2023-01-17T03:47:29.108Z,100.00
2023-01-17T03:49:55.469Z,100.00
2023-01-17T03:52:21.821Z,100.00
2023-01-17T03:54:48.607Z,100.00
2023-01-17T03:57:15.611Z,100.00
2023-01-17T03:59:41.973Z,100.00
2023-01-17T04:02:08.550Z,100.00
2023-01-17T04:04:35.008Z,100.00
2023-01-17T04:07:01.398Z,100.00
2023-01-17T04:09:27.787Z,100.00
2023-01-17T04:11:54.140Z,100.00
2023-01-17T04:14:20.518Z,100.00
2023-01-17T04:16:46.978Z,100.00
2023-01-17T04:19:13.868Z,100.00
2023-01-17T04:21:40.304Z,100.00
2023-01-17T04:24:06.998Z,100.00
2023-01-17T04:26:33.371Z,100.00
2023-01-17T04:28:59.753Z,100.00
2023-01-17T04:31:26.264Z,100.00
2023-01-17T04:33:52.712Z,100.00
2023-01-17T04:36:19.088Z,100.00
2023-01-17T04:38:45.535Z,100.00
2023-01-17T04:41:11.972Z,100.00
2023-01-17T04:43:38.436Z,100.00
2023-01-17T04:46:09.799Z,100.00
2023-01-17T04:48:36.722Z,100.00
2023-01-17T04:51:04.336Z,100.00
2023-01-17T04:53:31.017Z,100.00
2023-01-17T04:55:57.786Z,100.00
2023-01-17T04:58:24.242Z,100.00
2023-01-17T05:00:51.683Z,100.00
2023-01-17T05:03:19.300Z,100.00
2023-01-17T05:05:45.849Z,100.00
2023-01-17T05:08:12.317Z,100.00
2023-01-17T05:10:38.713Z,100.00
2023-01-17T05:13:05.265Z,100.00
2023-01-17T05:15:31.964Z,100.00
2023-01-17T05:17:58.406Z,100.00
2023-01-17T05:20:26.419Z,100.00
2023-01-17T05:22:56.921Z,100.00
2023-01-17T05:25:24.835Z,100.00
2023-01-17T05:27:51.549Z,100.00
2023-01-17T05:30:18.659Z,100.00
2023-01-17T05:32:52.795Z,100.00
2023-01-17T05:35:21.131Z,100.00
2023-01-17T05:37:49.256Z,100.00
2023-01-17T05:40:28.058Z,100.00
2023-01-17T05:42:56.365Z,100.00
2023-01-17T05:45:24.884Z,100.00
2023-01-17T05:47:53.102Z,100.00
2023-01-17T05:50:21.672Z,100.00
2023-01-17T05:52:55.956Z,100.00
2023-01-17T05:55:23.215Z,100.00
2023-01-17T05:57:50.227Z,100.00
2023-01-17T06:00:17.505Z,100.00
2023-01-17T06:02:45.279Z,100.00
2023-01-17T06:05:11.851Z,100.00
2023-01-17T06:07:38.265Z,100.00
2023-01-17T06:10:05.333Z,100.00
2023-01-17T06:12:32.190Z,100.00
2023-01-17T06:14:58.627Z,100.00
2023-01-17T06:17:24.996Z,100.00
2023-01-17T06:19:51.377Z,100.00
2023-01-17T06:22:17.741Z,100.00
2023-01-17T06:24:44.152Z,100.00
2023-01-17T06:27:10.678Z,100.00
2023-01-17T06:29:37.589Z,100.00
2023-01-17T06:32:04.181Z,100.00
2023-01-17T06:34:30.926Z,100.00
2023-01-17T06:36:57.400Z,100.00
2023-01-17T06:39:23.764Z,100.00
2023-01-17T06:41:50.223Z,100.00
2023-01-17T06:44:16.598Z,100.00
2023-01-17T06:46:43.373Z,100.00
2023-01-17T06:49:09.883Z,100.00
2023-01-17T06:51:36.264Z,100.00
2023-01-17T06:54:02.635Z,100.00
2023-01-17T06:56:31.653Z,100.00
2023-01-17T06:58:58.038Z,100.00
2023-01-17T07:01:24.974Z,100.00
2023-01-17T07:03:52.412Z,100.00
2023-01-17T07:06:18.910Z,100.00
2023-01-17T07:08:45.605Z,100.00
2023-01-17T07:11:12.010Z,100.00
2023-01-17T07:13:38.405Z,100.00
2023-01-17T07:16:06.110Z,100.00
2023-01-17T07:18:33.216Z,100.00
2023-01-17T07:20:59.636Z,100.00
2023-01-17T07:23:26.165Z,100.00
2023-01-17T07:26:00.108Z,100.00
2023-01-17T07:28:27.719Z,100.00
2023-01-17T07:30:54.553Z,100.00
2023-01-17T07:33:21.470Z,100.00
2023-01-17T07:35:47.871Z,100.00
2023-01-17T07:38:16.241Z,100.00
2023-01-17T07:40:42.760Z,100.00
2023-01-17T07:43:16.502Z,100.00
2023-01-17T07:45:44.514Z,100.00
2023-01-17T07:48:11.553Z,100.00
2023-01-17T07:50:38.551Z,100.00
2023-01-17T07:53:05.365Z,100.00
2023-01-17T07:55:31.962Z,100.00
2023-01-17T07:57:58.446Z,100.00
2023-01-17T08:00:27.461Z,100.00
2023-01-17T08:02:58.032Z,100.00
2023-01-17T08:05:25.186Z,100.00
2023-01-17T08:07:51.982Z,100.00
2023-01-17T08:10:18.893Z,100.00
2023-01-17T08:12:49.839Z,100.00
2023-01-17T08:15:17.596Z,100.00
2023-01-17T08:17:48.095Z,100.00
2023-01-17T08:20:15.583Z,100.00
2023-01-17T08:22:42.127Z,100.00
2023-01-17T08:25:09.177Z,100.00
2023-01-17T08:27:36.295Z,100.00
2023-01-17T08:30:03.450Z,100.00
2023-01-17T08:32:29.823Z,100.00
2023-01-17T08:34:57.091Z,100.00
2023-01-17T08:37:23.764Z,100.00
2023-01-17T08:39:50.141Z,100.00
2023-01-17T08:42:16.607Z,100.00
2023-01-17T08:44:43.574Z,100.00
2023-01-17T08:47:10.196Z,100.00
2023-01-17T08:49:36.762Z,100.00
2023-01-17T08:52:03.389Z,100.00
2023-01-17T08:54:29.801Z,100.00
2023-01-17T08:56:56.189Z,100.00
2023-01-17T08:59:22.640Z,100.00
2023-01-17T09:01:49.187Z,100.00
2023-01-17T09:04:15.831Z,100.00
2023-01-17T09:06:45.317Z,100.00
2023-01-17T09:09:11.715Z,100.00
2023-01-17T09:11:38.597Z,100.00
2023-01-17T09:14:05.140Z,100.00
2023-01-17T09:16:31.974Z,100.00
2023-01-17T09:18:58.916Z,100.00
2023-01-17T09:21:26.226Z,100.00
2023-01-17T09:23:53.400Z,100.00
2023-01-17T09:26:25.704Z,100.00
2023-01-17T09:28:52.161Z,100.00
2023-01-17T09:31:20.916Z,100.00
2023-01-17T09:33:51.868Z,100.00
2023-01-17T09:36:18.374Z,100.00
2023-01-17T09:38:44.837Z,100.00
2023-01-17T09:41:22.088Z,100.00
2023-01-17T09:43:56.005Z,100.00
2023-01-17T09:46:29.554Z,100.00
2023-01-17T09:49:08.870Z,100.00
2023-01-17T09:51:36.019Z,100.00
2023-01-17T09:54:02.498Z,100.00
2023-01-17T09:56:32.749Z,100.00
2023-01-17T09:59:11.779Z,100.00
2023-01-17T10:02:03.196Z,100.00
2023-01-17T10:04:41.794Z,100.00
2023-01-17T10:07:19.651Z,100.00
2023-01-17T10:09:59.936Z,100.00
2023-01-17T10:12:48.079Z,100.00
2023-01-17T10:15:28.701Z,100.00
2023-01-17T10:18:29.508Z,100.00
2023-01-17T10:20:56.100Z,100.00
2023-01-17T10:23:41.157Z,100.00
2023-01-17T10:26:26.771Z,100.00
2023-01-17T10:28:56.678Z,100.00
2023-01-17T10:31:28.022Z,100.00
2023-01-17T10:34:06.060Z,100.00
2023-01-17T10:36:37.906Z,100.00
2023-01-17T10:39:15.913Z,100.00
2023-01-17T10:41:44.008Z,100.00
2023-01-17T10:44:33.222Z,100.00
2023-01-17T10:47:07.283Z,100.00
2023-01-17T10:49:33.721Z,100.00
2023-01-17T10:52:06.410Z,100.00
2023-01-17T10:54:56.524Z,100.00
2023-01-17T10:57:25.219Z,100.00
2023-01-17T10:59:52.528Z,100.00
2023-01-17T11:02:23.378Z,100.00
2023-01-17T11:04:54.232Z,100.00
2023-01-17T11:07:23.314Z,100.00
2023-01-17T11:09:54.540Z,100.00
2023-01-17T11:12:28.102Z,100.00
2023-01-17T11:14:59.935Z,100.00
2023-01-17T11:17:27.460Z,100.00
2023-01-17T11:19:54.477Z,100.00
2023-01-17T11:22:21.133Z,100.00
2023-01-17T11:24:51.469Z,100.00
2023-01-17T11:27:29.621Z,100.00
2023-01-17T11:30:07.194Z,100.00
2023-01-17T11:32:34.369Z,100.00
2023-01-17T11:35:09.800Z,100.00
2023-01-17T11:37:36.728Z,100.00
2023-01-17T11:40:23.607Z,100.00
2023-01-17T11:43:03.290Z,100.00
2023-01-17T11:45:32.343Z,100.00
2023-01-17T11:48:07.851Z,100.00
2023-01-17T11:50:37.432Z,100.00
2023-01-17T11:53:21.811Z,100.00
2023-01-17T11:56:09.201Z,100.00
2023-01-17T11:58:41.307Z,100.00
2023-01-17T12:01:18.044Z,100.00
2023-01-17T12:04:00.934Z,100.00
2023-01-17T12:06:47.812Z,100.00
2023-01-17T12:09:36.257Z,100.00
2023-01-17T12:12:30.299Z,100.00
2023-01-17T12:15:06.324Z,100.00
2023-01-17T12:17:54.367Z,100.00
2023-01-17T12:20:52.462Z,100.00
2023-01-17T12:23:43.660Z,100.00
2023-01-17T12:26:30.221Z,100.00
2023-01-17T12:29:23.216Z,100.00
2023-01-17T12:32:13.895Z,100.00
2023-01-17T12:34:47.015Z,100.00
2023-01-17T12:37:39.126Z,100.00
2023-01-17T12:40:32.416Z,100.00
2023-01-17T12:43:14.471Z,100.00
2023-01-17T12:45:45.744Z,100.00
2023-01-17T12:48:16.071Z,100.00
2023-01-17T12:50:48.939Z,100.00
2023-01-17T12:53:24.411Z,100.00
2023-01-17T12:56:04.183Z,100.00
2023-01-17T12:58:36.757Z,100.00
2023-01-17T13:01:15.661Z,100.00
2023-01-17T13:04:16.400Z,100.00
2023-01-17T13:06:53.559Z,100.00
2023-01-17T13:09:22.920Z,100.00
2023-01-17T13:12:00.190Z,100.00
2023-01-17T13:14:27.841Z,100.00
2023-01-17T13:17:18.947Z,100.00
2023-01-17T13:19:51.075Z,100.00
2023-01-17T13:22:21.836Z,100.00
2023-01-17T13:25:25.100Z,100.00
2023-01-17T13:28:03.872Z,100.00
2023-01-17T13:30:59.155Z,100.00
2023-01-17T13:33:34.034Z,100.00
2023-01-17T13:36:29.701Z,100.00
2023-01-17T13:39:20.924Z,99.22
2023-01-17T13:41:51.484Z,98.82
2023-01-17T13:44:27.141Z,96.75
2023-01-17T13:47:04.232Z,97.85
2023-01-17T13:49:33.170Z,98.90
2023-01-17T13:52:05.497Z,98.11
2023-01-17T13:54:33.295Z,96.59
2023-01-17T13:57:29.877Z,96.12
2023-01-17T13:59:57.995Z,95.65
2023-01-17T14:02:33.379Z,94.88
2023-01-17T14:05:08.400Z,94.18
2023-01-17T14:07:37.173Z,95.31
2023-01-17T14:10:22.589Z,96.30
2023-01-17T14:12:49.385Z,97.88
2023-01-17T14:15:20.713Z,98.40
2023-01-17T14:17:51.534Z,98.20
2023-01-17T14:20:18.769Z,99.24
2023-01-17T14:22:51.806Z,98.53
2023-01-17T14:25:19.763Z,98.21
2023-01-17T14:28:03.330Z,97.38
2023-01-17T14:30:36.548Z,96.18
2023-01-17T14:33:05.765Z,96.33
2023-01-17T14:35:37.632Z,96.79
2023-01-17T14:38:15.406Z,96.82
2023-01-17T14:41:02.715Z,97.34
2023-01-17T14:43:32.830Z,97.20
2023-01-17T14:46:02.359Z,98.53
2023-01-17T14:48:29.043Z,100.00
2023-01-17T14:50:59.849Z,100.00
2023-01-17T14:53:30.483Z,100.00
2023-01-17T14:55:58.379Z,100.00
2023-01-17T14:58:27.219Z,100.00
2023-01-17T15:00:57.826Z,100.00
2023-01-17T15:03:24.500Z,100.00
2023-01-17T15:05:52.926Z,100.00
2023-01-17T15:08:22.326Z,100.00
2023-01-17T15:10:56.140Z,100.00
2023-01-17T15:13:43.148Z,100.00
2023-01-17T15:16:17.712Z,100.00
2023-01-17T15:18:44.174Z,100.00
2023-01-17T15:21:16.015Z,100.00
2023-01-17T15:24:03.727Z,100.00
2023-01-17T15:26:34.367Z,100.00
2023-01-17T15:29:07.354Z,100.00
2023-01-17T15:31:42.964Z,100.00
2023-01-17T15:34:26.866Z,100.00
2023-01-17T15:36:54.279Z,100.00
2023-01-17T15:39:23.655Z,100.00
2023-01-17T15:41:54.883Z,100.00
2023-01-17T15:44:47.097Z,100.00
2023-01-17T15:47:28.410Z,100.00
2023-01-17T15:49:54.804Z,100.00
2023-01-17T15:52:21.695Z,100.00
2023-01-17T15:54:53.383Z,100.00
2023-01-17T15:57:25.425Z,100.00
2023-01-17T16:00:22.314Z,100.00
2023-01-17T16:02:55.105Z,100.00
2023-01-17T16:05:24.787Z,100.00
2023-01-17T16:07:56.017Z,100.00
2023-01-17T16:10:28.651Z,100.00
2023-01-17T16:12:56.090Z,100.00
2023-01-17T16:15:25.864Z,100.00
2023-01-17T16:17:55.987Z,100.00
2023-01-17T16:20:33.076Z,100.00
2023-01-17T16:23:00.521Z,100.00
2023-01-17T16:25:32.257Z,100.00
2023-01-17T16:27:59.485Z,100.00
2023-01-17T16:30:28.999Z,100.00
2023-01-17T16:32:56.620Z,100.00
2023-01-17T16:35:25.465Z,100.00
2023-01-17T16:37:57.021Z,100.00
2023-01-17T16:40:25.594Z,100.00
2023-01-17T16:42:52.064Z,100.00
2023-01-17T16:45:18.790Z,100.00
2023-01-17T16:47:46.611Z,100.00
2023-01-17T16:50:14.965Z,100.00
2023-01-17T16:52:41.514Z,100.00
2023-01-17T16:55:13.699Z,100.00
2023-01-17T16:57:40.313Z,100.00
2023-01-17T17:00:07.566Z,100.00
2023-01-17T17:02:34.029Z,100.00
2023-01-17T17:05:00.493Z,100.00
2023-01-17T17:07:26.875Z,100.00
2023-01-17T17:09:53.270Z,100.00
2023-01-17T17:12:19.658Z,100.00
2023-01-17T17:14:46.068Z,100.00
2023-01-17T17:17:12.488Z,100.00
2023-01-17T17:19:38.884Z,100.00
2023-01-17T17:22:06.431Z,100.00
2023-01-17T17:24:33.192Z,100.00
2023-01-17T17:26:59.589Z,100.00
2023-01-17T17:29:26.011Z,100.00
2023-01-17T17:31:53.591Z,100.00
2023-01-17T17:34:20.648Z,100.00
2023-01-17T17:36:47.039Z,100.00
2023-01-17T17:39:17.095Z,100.00
2023-01-17T17:41:45.496Z,100.00
2023-01-17T17:44:12.543Z,100.00
2023-01-17T17:46:39.054Z,100.00
2023-01-17T17:49:06.637Z,100.00
2023-01-17T17:51:35.160Z,100.00
2023-01-17T17:54:06.512Z,100.00
2023-01-17T17:56:34.629Z,100.00
2023-01-17T17:59:02.488Z,100.00
2023-01-17T18:01:29.344Z,100.00
2023-01-17T18:03:57.662Z,100.00
2023-01-17T18:06:24.091Z,100.00
2023-01-17T18:08:51.922Z,100.00
2023-01-17T18:11:23.889Z,100.00
2023-01-17T18:13:51.927Z,100.00
2023-01-17T18:16:32.879Z,100.00
2023-01-17T18:18:59.723Z,100.00
2023-01-17T18:21:31.116Z,100.00
2023-01-17T18:24:00.086Z,100.00
2023-01-17T18:26:28.829Z,100.00
2023-01-17T18:28:56.617Z,100.00
2023-01-17T18:31:29.989Z,100.00
2023-01-17T18:34:04.385Z,100.00
2023-01-17T18:36:31.146Z,100.00
2023-01-17T18:38:57.645Z,100.00
2023-01-17T18:41:29.218Z,100.00
2023-01-17T18:43:56.088Z,100.00
2023-01-17T18:46:22.880Z,100.00
2023-01-17T18:48:49.323Z,100.00
2023-01-17T18:51:17.750Z,100.00
2023-01-17T18:53:45.475Z,100.00
2023-01-17T18:56:14.435Z,100.00
2023-01-17T18:58:42.793Z,100.00
2023-01-17T19:01:19.115Z,100.00
2023-01-17T19:03:47.583Z,100.00
2023-01-17T19:06:18.024Z,100.00
2023-01-17T19:08:45.044Z,100.00
2023-01-17T19:11:12.090Z,100.00
2023-01-17T19:13:39.433Z,100.00
2023-01-17T19:16:14.756Z,100.00
2023-01-17T19:18:41.780Z,100.00
2023-01-17T19:21:15.710Z,100.00
2023-01-17T19:23:43.434Z,100.00
2023-01-17T19:26:11.031Z,100.00
2023-01-17T19:28:39.060Z,100.00
2023-01-17T19:31:14.105Z,100.00
2023-01-17T19:33:43.499Z,100.00
2023-01-17T19:36:17.064Z,100.00
2023-01-17T19:38:52.283Z,100.00
2023-01-17T19:41:27.173Z,100.00
2023-01-17T19:43:55.343Z,100.00
2023-01-17T19:46:22.329Z,100.00
2023-01-17T19:48:48.685Z,100.00
2023-01-17T19:51:16.001Z,100.00
2023-01-17T19:53:42.509Z,100.00
2023-01-17T19:56:14.577Z,100.00
2023-01-17T19:58:41.925Z,100.00
2023-01-17T20:01:24.614Z,100.00
2023-01-17T20:03:51.491Z,100.00
2023-01-17T20:06:20.288Z,100.00
2023-01-17T20:08:46.825Z,100.00
2023-01-17T20:11:15.948Z,100.00
2023-01-17T20:13:42.490Z,100.00
2023-01-17T20:16:11.227Z,100.00
2023-01-17T20:18:37.801Z,100.00
2023-01-17T20:21:04.789Z,100.00
2023-01-17T20:23:35.747Z,100.00
2023-01-17T20:26:04.436Z,100.00
2023-01-17T20:28:33.170Z,100.00
2023-01-17T20:31:09.114Z,100.00
2023-01-17T20:33:36.255Z,100.00
2023-01-17T20:36:10.109Z,100.00
2023-01-17T20:38:44.697Z,100.00
2023-01-17T20:41:14.208Z,100.00
2023-01-17T20:43:44.974Z,100.00
2023-01-17T20:46:11.990Z,100.00
2023-01-17T20:48:44.228Z,100.00
2023-01-17T20:51:10.913Z,100.00
2023-01-17T20:53:38.807Z,100.00
2023-01-17T20:56:06.024Z,100.00
2023-01-17T20:58:33.948Z,100.00
2023-01-17T21:01:01.041Z,100.00
2023-01-17T21:03:33.213Z,100.00
2023-01-17T21:06:05.076Z,100.00
2023-01-17T21:08:33.256Z,100.00
2023-01-17T21:10:59.903Z,100.00
2023-01-17T21:13:26.772Z,100.00
2023-01-17T21:15:53.892Z,100.00
2023-01-17T21:18:21.887Z,100.00
2023-01-17T21:20:48.668Z,100.00
2023-01-17T21:23:17.996Z,100.00
2023-01-17T21:26:05.035Z,100.00
2023-01-17T21:28:33.883Z,100.00
2023-01-17T21:31:00.445Z,100.00
2023-01-17T21:33:29.261Z,100.00
2023-01-17T21:35:55.669Z,100.00
2023-01-17T21:38:22.039Z,100.00
2023-01-17T21:40:48.421Z,100.00
2023-01-17T21:43:15.044Z,100.00
2023-01-17T21:45:42.086Z,100.00
2023-01-17T21:48:13.523Z,100.00
2023-01-17T21:50:39.944Z,100.00
2023-01-17T21:53:06.985Z,100.00
2023-01-17T21:55:51.999Z,100.00
2023-01-17T21:58:36.769Z,100.00
2023-01-17T22:01:17.725Z,100.00
2023-01-17T22:03:49.411Z,100.00
2023-01-17T22:06:15.916Z,100.00
2023-01-17T22:08:42.408Z,100.00
2023-01-17T22:11:11.428Z,100.00
2023-01-17T22:13:38.991Z,100.00
2023-01-17T22:16:07.760Z,100.00
2023-01-17T22:18:38.861Z,100.00
2023-01-17T22:21:16.751Z,100.00
2023-01-17T22:23:53.253Z,100.00
2023-01-17T22:26:21.518Z,100.00
2023-01-17T22:28:48.220Z,100.00
2023-01-17T22:31:20.797Z,100.00
2023-01-17T22:33:48.139Z,100.00
2023-01-17T22:36:15.169Z,100.00
2023-01-17T22:38:42.553Z,100.00
2023-01-17T22:41:13.016Z,100.00
2023-01-17T22:43:42.006Z,100.00
2023-01-17T22:46:10.164Z,100.00
2023-01-17T22:48:37.812Z,100.00
2023-01-17T22:51:06.015Z,100.00
2023-01-17T22:53:32.976Z,100.00
2023-01-17T22:56:04.403Z,100.00
2023-01-17T22:58:31.371Z,100.00
2023-01-17T23:01:05.502Z,100.00
2023-01-17T23:03:32.801Z,100.00
2023-01-17T23:06:12.465Z,100.00
2023-01-17T23:08:40.493Z,100.00
2023-01-17T23:11:39.324Z,100.00
2023-01-17T23:14:14.853Z,100.00
2023-01-17T23:17:03.030Z,100.00
2023-01-17T23:19:32.747Z,100.00
2023-01-17T23:22:18.762Z,100.00
2023-01-17T23:24:52.245Z,100.00
2023-01-17T23:27:52.552Z,100.00
2023-01-17T23:30:25.696Z,100.00
2023-01-17T23:32:57.388Z,100.00
2023-01-17T23:35:26.803Z,100.00
2023-01-17T23:38:28.573Z,100.00
2023-01-17T23:41:22.525Z,100.00
2023-01-17T23:43:52.650Z,100.00
2023-01-17T23:46:19.351Z,100.00
2023-01-17T23:48:45.736Z,100.00
2023-01-17T23:51:12.140Z,100.00
2023-01-17T23:53:39.442Z,100.00
2023-01-17T23:56:23.036Z,100.00
2023-01-17T23:58:49.480Z,100.00
